Time;durP1;ratioP1;P1;durP2;ratioP2;P2;SDS_P1;SDS_P2;PMS_P1;PMS_P2;Temp;Humidity;BMP_temperature;BMP_pressure;BME280_temperature;BME280_humidity;BME280_pressure;Samples;Min_cycle;Max_cycle;Signal;HPM_P1;HPM_P2
2022/11/11 00:00:04;;;;;;;14.70;8.10;;;12.10;99.90;;;;;;5073185;28;20200;-71
2022/11/11 00:02:52;;;;;;;20.87;8.37;;;12.00;99.90;;;;;;5068222;28;20743;-69
2022/11/11 00:05:40;;;;;;;15.23;8.80;;;12.10;99.90;;;;;;5064073;28;20231;-73
2022/11/11 00:08:27;;;;;;;16.73;9.17;;;12.10;99.90;;;;;;5054537;28;20263;-72
2022/11/11 00:11:15;;;;;;;19.00;8.90;;;12.00;99.90;;;;;;5053759;28;20224;-72
2022/11/11 00:14:02;;;;;;;15.20;8.60;;;12.00;99.90;;;;;;5054134;28;20208;-72
2022/11/11 00:26:04;;;;;;;14.03;7.60;;;12.00;99.90;;;;;;5054108;28;20251;-71
2022/11/11 00:29:11;;;;;;;13.17;7.70;;;12.00;99.90;;;;;;5053141;28;20208;-72
2022/11/11 00:38:10;;;;;;;20.23;7.80;;;12.10;99.90;;;;;;5055986;28;20558;-72
2022/11/11 00:40:57;;;;;;;14.70;7.80;;;12.10;99.90;;;;;;5066688;28;20216;-71
2022/11/11 00:43:46;;;;;;;12.83;8.57;;;12.20;99.90;;;;;;5073404;28;20272;-72
2022/11/11 00:52:42;;;;;;;9.77;6.93;;;12.10;99.90;;;;;;5073052;28;20277;-72
2022/11/11 00:55:30;;;;;;;13.57;7.47;;;12.10;99.90;;;;;;5073572;28;20214;-70
2022/11/11 00:58:17;;;;;;;12.40;7.20;;;12.30;99.90;;;;;;5073167;28;20326;-70
2022/11/11 01:01:04;;;;;;;15.00;7.43;;;12.20;99.90;;;;;;5073318;28;20201;-66
2022/11/11 01:03:51;;;;;;;15.17;7.30;;;12.20;99.90;;;;;;5073009;28;20234;-66
2022/11/11 01:06:37;;;;;;;14.00;7.33;;;12.20;99.90;;;;;;5068880;28;20211;-66
2022/11/11 01:09:25;;;;;;;10.40;7.33;;;12.20;99.90;;;;;;5067466;28;20564;-67
2022/11/11 01:12:13;;;;;;;16.97;7.67;;;12.20;99.90;;;;;;5073286;28;20651;-71
2022/11/11 01:15:01;;;;;;;11.27;7.23;;;12.20;99.90;;;;;;5073196;28;20214;-68
2022/11/11 01:17:48;;;;;;;14.50;7.27;;;12.20;99.90;;;;;;5073008;28;20202;-70
2022/11/11 01:20:36;;;;;;;16.30;7.67;;;12.20;99.90;;;;;;5072522;28;20227;-68
2022/11/11 01:23:23;;;;;;;16.10;8.27;;;12.20;99.90;;;;;;5072992;28;20224;-68
2022/11/11 01:26:20;;;;;;;13.80;7.93;;;12.10;99.90;;;;;;5072805;28;20351;-67
2022/11/11 01:29:14;;;;;;;11.40;7.30;;;12.00;99.90;;;;;;5072847;28;20290;-68
2022/11/11 01:32:01;;;;;;;17.73;7.57;;;12.10;99.90;;;;;;5073047;28;20211;-67
2022/11/11 01:34:48;;;;;;;9.57;6.50;;;12.10;99.90;;;;;;5072985;28;20253;-67
2022/11/11 01:37:36;;;;;;;12.23;6.70;;;12.10;99.90;;;;;;5072954;28;20254;-71
2022/11/11 01:40:23;;;;;;;10.27;6.40;;;12.10;99.90;;;;;;5072755;28;20667;-66
2022/11/11 01:43:23;;;;;;;12.00;6.73;;;12.00;99.90;;;;;;5076583;28;20270;-69
2022/11/11 01:46:21;;;;;;;10.70;7.23;;;12.10;99.90;;;;;;5076688;28;20230;-70
2022/11/11 01:49:28;;;;;;;11.27;6.47;;;12.20;99.90;;;;;;5076388;28;20220;-72
2022/11/11 01:52:19;;;;;;;10.70;6.63;;;12.20;99.90;;;;;;5076728;28;20203;-72
2022/11/11 01:55:10;;;;;;;11.60;6.20;;;12.30;99.90;;;;;;5076502;28;20556;-73
2022/11/11 01:58:00;;;;;;;8.80;6.37;;;12.30;99.90;;;;;;5076461;28;20694;-70
2022/11/11 02:00:47;;;;;;;10.67;6.67;;;12.30;99.90;;;;;;5076399;28;20226;-71
2022/11/11 02:05:40;;;;;;;12.40;6.43;;;12.40;99.90;;;;;;5076318;28;20231;-71
2022/11/11 02:06:49;;;;;;;11.97;6.83;;;12.40;99.90;;;;;;5076522;28;20685;-72
2022/11/11 02:09:39;;;;;;;8.83;5.97;;;12.50;99.90;;;;;;5076539;28;20569;-72
2022/11/11 02:15:32;;;;;;;17.17;6.73;;;12.50;99.90;;;;;;5076334;28;20681;-69
2022/11/11 02:18:19;;;;;;;13.17;6.90;;;12.40;99.90;;;;;;5076310;28;20319;-71
2022/11/11 02:21:10;;;;;;;11.67;6.63;;;12.30;99.90;;;;;;5075815;28;20705;-71
2022/11/11 02:24:04;;;;;;;13.57;6.70;;;12.30;99.90;;;;;;5075908;28;20231;-71
2022/11/11 02:26:54;;;;;;;16.93;7.07;;;12.30;99.90;;;;;;5076214;28;20206;-72
2022/11/11 02:29:46;;;;;;;13.20;6.47;;;12.30;99.90;;;;;;5075886;28;20610;-71
2022/11/11 02:32:33;;;;;;;11.93;7.07;;;12.20;99.90;;;;;;5075772;28;20203;-71
2022/11/11 02:35:22;;;;;;;17.63;6.33;;;12.20;99.90;;;;;;5076076;28;20207;-72
2022/11/11 02:38:11;;;;;;;15.97;6.80;;;12.20;99.90;;;;;;5075964;28;20599;-71
2022/11/11 02:44:04;;;;;;;15.90;6.97;;;12.20;99.90;;;;;;5075388;28;20598;-72
2022/11/11 02:46:52;;;;;;;15.30;7.33;;;12.30;99.90;;;;;;5075481;28;20208;-70
2022/11/11 02:49:39;;;;;;;8.67;6.20;;;12.40;99.90;;;;;;5075424;28;20281;-72
2022/11/11 02:52:26;;;;;;;9.90;6.57;;;12.40;99.90;;;;;;5071835;28;20213;-70
2022/11/11 02:55:13;;;;;;;11.23;6.60;;;12.30;99.90;;;;;;5064452;28;20213;-72
2022/11/11 02:58:01;;;;;;;10.83;5.63;;;12.40;99.90;;;;;;5059868;28;20303;-71
2022/11/11 03:00:49;;;;;;;16.27;6.27;;;12.40;99.90;;;;;;5055287;28;20210;-73
2022/11/11 03:03:36;;;;;;;10.93;5.90;;;12.40;99.90;;;;;;5055454;28;20282;-72
2022/11/11 03:06:23;;;;;;;12.40;5.77;;;12.40;99.90;;;;;;5055467;28;20209;-70
2022/11/11 03:09:10;;;;;;;10.97;6.60;;;12.50;99.90;;;;;;5055581;28;20553;-72
2022/11/11 03:11:58;;;;;;;9.77;5.97;;;12.40;99.90;;;;;;5055379;28;20220;-72
2022/11/11 03:14:46;;;;;;;13.33;6.40;;;12.40;99.90;;;;;;5055375;28;20221;-72
2022/11/11 03:17:38;;;;;;;11.93;5.60;;;12.50;99.90;;;;;;5054967;28;20223;-72
2022/11/11 03:23:30;;;;;;;8.00;5.30;;;12.50;99.90;;;;;;5054830;28;20221;-71
2022/11/11 03:26:16;;;;;;;11.07;6.00;;;12.50;99.90;;;;;;5055109;28;20201;-67
2022/11/11 03:29:04;;;;;;;20.60;5.93;;;12.60;99.90;;;;;;5054918;28;20333;-66
2022/11/11 03:31:52;;;;;;;13.63;5.80;;;12.60;99.90;;;;;;5055005;28;20209;-72
2022/11/11 03:34:39;;;;;;;16.23;6.17;;;12.60;99.90;;;;;;5054621;28;20208;-71
2022/11/11 03:40:30;;;;;;;10.80;5.07;;;12.70;99.90;;;;;;5054599;28;20694;-72
2022/11/11 03:43:19;;;;;;;12.30;6.00;;;12.60;99.90;;;;;;5054452;28;20683;-72
2022/11/11 03:46:06;;;;;;;11.97;5.50;;;12.60;99.90;;;;;;5062025;28;20254;-72
2022/11/11 03:48:55;;;;;;;10.83;5.37;;;12.60;99.90;;;;;;5074639;28;20250;-72
2022/11/11 03:51:42;;;;;;;14.80;5.10;;;12.70;99.90;;;;;;5074546;28;20283;-71
2022/11/11 03:54:29;;;;;;;15.30;7.37;;;12.70;99.90;;;;;;5074316;28;20203;-72
2022/11/11 03:57:31;;;;;;;10.97;4.80;;;12.70;99.90;;;;;;5074541;28;20226;-72
2022/11/11 04:00:21;;;;;;;8.27;5.23;;;12.80;99.90;;;;;;5074384;28;20214;-72
2022/11/11 04:12:26;;;;;;;7.83;4.93;;;12.80;99.90;;;;;;5074146;28;20224;-72
2022/11/11 04:21:41;;;;;;;12.77;5.27;;;12.80;99.90;;;;;;5071300;28;20279;-73
2022/11/11 04:21:44;;;;;;;13.30;5.50;;;12.80;99.90;;;;;;5058327;28;20215;-73
2022/11/11 04:27:36;;;;;;;12.67;5.03;;;12.90;99.90;;;;;;5073654;28;20195;-73
2022/11/11 04:30:22;;;;;;;10.27;5.30;;;12.80;99.90;;;;;;5074019;28;20577;-73
2022/11/11 04:33:10;;;;;;;21.23;6.80;;;12.80;99.90;;;;;;5073984;28;20212;-72
2022/11/11 04:35:56;;;;;;;9.07;4.70;;;12.80;99.90;;;;;;5073574;28;20254;-70
2022/11/11 04:41:48;;;;;;;11.87;5.17;;;12.80;99.90;;;;;;5072889;28;20207;-73
2022/11/11 04:48:01;;;;;;;9.73;4.83;;;12.90;99.90;;;;;;5072459;28;20212;-71
2022/11/11 04:50:48;;;;;;;10.43;4.67;;;12.80;99.90;;;;;;5070914;28;20669;-72
2022/11/11 04:53:36;;;;;;;10.77;5.10;;;12.90;99.90;;;;;;5072310;28;20202;-73
2022/11/11 04:59:29;;;;;;;12.63;5.60;;;12.90;99.90;;;;;;5072761;28;20293;-70
2022/11/11 05:05:20;;;;;;;12.23;5.43;;;12.80;99.90;;;;;;5073166;28;20237;-66
2022/11/11 05:11:12;;;;;;;9.13;6.60;;;12.80;99.90;;;;;;5073193;28;20595;-67
2022/11/11 05:23:16;;;;;;;10.70;5.00;;;12.80;99.90;;;;;;5073123;28;20211;-71
2022/11/11 05:26:03;;;;;;;6.80;3.97;;;12.80;99.90;;;;;;5072793;28;20230;-66
2022/11/11 05:28:50;;;;;;;8.33;5.10;;;12.80;99.90;;;;;;5072889;28;20579;-70
2022/11/11 05:31:38;;;;;;;9.40;4.10;;;12.90;99.90;;;;;;5072837;28;20200;-67
2022/11/11 05:34:24;;;;;;;9.17;4.30;;;12.90;99.90;;;;;;5073182;28;20196;-67
2022/11/11 05:37:12;;;;;;;7.73;4.20;;;13.00;99.90;;;;;;5073106;28;20556;-67
2022/11/11 05:39:59;;;;;;;9.83;3.87;;;12.90;99.90;;;;;;5073090;28;20203;-68
2022/11/11 05:42:46;;;;;;;10.60;4.40;;;12.90;99.90;;;;;;5072585;28;20239;-68
2022/11/11 05:45:41;;;;;;;11.33;5.27;;;13.00;99.90;;;;;;5072615;28;20291;-70
2022/11/11 05:48:30;;;;;;;9.37;4.90;;;13.00;99.90;;;;;;5072981;28;20206;-69
2022/11/11 05:51:26;;;;;;;12.73;4.63;;;13.00;99.90;;;;;;5073003;28;20294;-69
2022/11/11 05:54:14;;;;;;;12.87;4.37;;;13.10;99.90;;;;;;5072546;28;20303;-68
2022/11/11 05:57:02;;;;;;;15.17;5.03;;;13.00;99.90;;;;;;5072675;28;20338;-71
2022/11/11 05:59:49;;;;;;;11.07;4.53;;;13.00;99.90;;;;;;5072886;28;20205;-69
2022/11/11 06:02:36;;;;;;;7.63;3.93;;;12.90;99.90;;;;;;5072501;28;20215;-70
2022/11/11 06:05:25;;;;;;;6.93;3.80;;;13.00;99.90;;;;;;5072630;28;20582;-68
2022/11/11 06:08:11;;;;;;;11.20;4.23;;;13.00;99.90;;;;;;5072448;28;20204;-68
2022/11/11 06:10:58;;;;;;;7.17;4.93;;;12.90;99.90;;;;;;5072373;28;20554;-67
2022/11/11 06:13:45;;;;;;;8.60;4.33;;;12.90;99.90;;;;;;5072765;28;20216;-69
2022/11/11 06:16:33;;;;;;;5.97;4.00;;;13.00;99.90;;;;;;5072401;28;20736;-70
2022/11/11 06:19:20;;;;;;;5.53;4.10;;;12.90;99.90;;;;;;5072413;28;20216;-69
2022/11/11 06:22:09;;;;;;;10.90;3.87;;;12.90;99.90;;;;;;5072512;28;20200;-68
2022/11/11 06:26:11;;;;;;;10.47;4.60;;;13.00;99.90;;;;;;5072549;28;20641;-68
2022/11/11 06:28:03;;;;;;;7.57;4.10;;;12.90;99.90;;;;;;5074921;28;20634;-70
2022/11/11 06:30:50;;;;;;;8.77;5.27;;;12.90;99.90;;;;;;5075862;28;20203;-68
2022/11/11 06:33:38;;;;;;;11.60;4.37;;;12.90;99.90;;;;;;5076061;28;20220;-69
2022/11/11 06:36:25;;;;;;;5.90;4.20;;;12.90;99.90;;;;;;5075789;28;20208;-67
2022/11/11 06:39:14;;;;;;;7.77;5.00;;;12.90;99.90;;;;;;5075549;28;20192;-70
2022/11/11 06:42:01;;;;;;;9.80;4.40;;;12.90;99.90;;;;;;5075559;28;20247;-68
2022/11/11 06:44:48;;;;;;;12.40;5.50;;;12.90;99.90;;;;;;5075752;28;20600;-67
2022/11/11 06:47:38;;;;;;;7.17;3.60;;;13.00;99.90;;;;;;5075516;28;20575;-68
2022/11/11 06:50:27;;;;;;;12.43;4.33;;;13.00;99.90;;;;;;5075800;28;20212;-67
2022/11/11 06:53:16;;;;;;;7.97;4.37;;;13.10;99.90;;;;;;5075587;28;20234;-68
2022/11/11 06:56:06;;;;;;;10.40;3.83;;;13.10;99.90;;;;;;5075714;28;20208;-67
2022/11/11 06:58:53;;;;;;;8.40;4.20;;;13.20;99.90;;;;;;5075790;28;20208;-70
2022/11/11 07:01:40;;;;;;;10.20;4.00;;;13.10;99.90;;;;;;5075787;28;20725;-70
2022/11/11 07:04:27;;;;;;;9.20;4.13;;;13.10;99.90;;;;;;5075530;28;20228;-67
2022/11/11 07:07:16;;;;;;;9.53;4.07;;;13.10;99.90;;;;;;5075628;28;20259;-68
2022/11/11 07:10:06;;;;;;;9.03;4.20;;;13.10;99.90;;;;;;5075434;28;20668;-67
2022/11/11 07:12:54;;;;;;;8.70;5.37;;;13.10;99.90;;;;;;5075279;28;20260;-67
2022/11/11 07:15:42;;;;;;;12.50;5.80;;;13.10;99.90;;;;;;5075165;28;20203;-66
2022/11/11 07:18:29;;;;;;;15.50;5.70;;;13.10;99.90;;;;;;5075003;28;20201;-66
2022/11/11 07:21:17;;;;;;;13.13;8.00;;;13.20;99.90;;;;;;5075139;28;20568;-68
2022/11/11 07:24:04;;;;;;;11.80;4.67;;;13.20;99.90;;;;;;5075207;28;20227;-68
2022/11/11 07:26:51;;;;;;;9.13;4.20;;;13.20;99.90;;;;;;5074849;28;20233;-67
2022/11/11 07:29:41;;;;;;;12.60;4.60;;;13.10;99.90;;;;;;5074626;28;20200;-72
2022/11/11 07:32:28;;;;;;;13.60;4.70;;;13.00;99.90;;;;;;5074705;28;20251;-72
2022/11/11 07:35:16;;;;;;;9.80;4.60;;;13.00;99.90;;;;;;5075101;28;20396;-69
2022/11/11 07:38:03;;;;;;;8.67;4.73;;;13.00;99.90;;;;;;5074553;28;20242;-69
2022/11/11 07:40:50;;;;;;;8.37;4.53;;;13.00;99.90;;;;;;5074528;28;20196;-68
2022/11/11 07:43:37;;;;;;;7.70;4.17;;;13.00;99.90;;;;;;5074555;28;20212;-68
2022/11/11 07:46:26;;;;;;;13.17;4.53;;;13.00;99.90;;;;;;5074528;28;20688;-68
2022/11/11 07:49:13;;;;;;;14.47;5.67;;;13.00;99.90;;;;;;5074353;28;20777;-71
2022/11/11 07:52:00;;;;;;;9.47;4.57;;;13.00;99.90;;;;;;5074250;28;20207;-71
2022/11/11 07:54:49;;;;;;;10.87;5.20;;;12.90;99.90;;;;;;5074402;28;20236;-67
2022/11/11 07:57:36;;;;;;;10.97;4.80;;;13.00;99.90;;;;;;5074457;28;20203;-70
2022/11/11 08:00:23;;;;;;;11.73;4.53;;;12.90;99.90;;;;;;5074433;28;20209;-70
2022/11/11 08:03:12;;;;;;;8.10;4.67;;;13.00;99.90;;;;;;5074006;28;20199;-68
2022/11/11 08:06:02;;;;;;;12.63;5.77;;;13.00;99.90;;;;;;5074126;28;20810;-70
2022/11/11 08:08:50;;;;;;;10.33;4.97;;;12.90;99.90;;;;;;5073781;28;20279;-71
2022/11/11 08:14:41;;;;;;;13.23;8.47;;;12.80;99.90;;;;;;5073799;28;20197;-70
2022/11/11 08:17:29;;;;;;;10.03;4.97;;;12.80;99.90;;;;;;5073799;28;20206;-72
2022/11/11 08:20:17;;;;;;;12.50;6.97;;;12.70;99.90;;;;;;5073537;28;20240;-71
2022/11/11 08:23:09;;;;;;;13.73;5.73;;;12.80;99.90;;;;;;5074139;28;20552;-71
2022/11/11 08:26:19;;;;;;;12.70;6.87;;;12.70;99.90;;;;;;5073700;28;20363;-69
2022/11/11 08:29:11;;;;;;;11.17;5.60;;;12.70;99.90;;;;;;5073984;28;20220;-71
2022/11/11 08:31:59;;;;;;;13.43;7.43;;;12.60;99.90;;;;;;5073589;28;20199;-68
2022/11/11 08:34:46;;;;;;;12.63;6.23;;;12.70;99.90;;;;;;5073807;28;20204;-70
2022/11/11 08:37:34;;;;;;;12.23;6.40;;;12.70;99.90;;;;;;5073766;28;20207;-71
2022/11/11 08:40:22;;;;;;;15.27;6.17;;;12.70;99.90;;;;;;5073767;28;20215;-71
2022/11/11 08:43:09;;;;;;;10.63;5.67;;;12.70;99.90;;;;;;5073204;28;20192;-70
2022/11/11 08:45:56;;;;;;;11.47;6.93;;;12.80;99.90;;;;;;5073494;28;20316;-69
2022/11/11 08:48:43;;;;;;;10.27;5.87;;;12.70;99.90;;;;;;5073252;28;20296;-70
2022/11/11 08:51:31;;;;;;;16.63;7.83;;;12.70;99.90;;;;;;5073227;28;20223;-73
2022/11/11 08:54:27;;;;;;;9.67;5.90;;;12.80;99.90;;;;;;5073075;28;20319;-72
2022/11/11 08:57:14;;;;;;;7.83;5.50;;;12.80;99.90;;;;;;5073218;28;20207;-67
2022/11/11 09:00:02;;;;;;;13.10;6.03;;;12.70;99.90;;;;;;5073350;28;20195;-68
2022/11/11 09:02:49;;;;;;;10.23;5.80;;;12.70;99.90;;;;;;5073143;28;20210;-68
2022/11/11 09:05:38;;;;;;;9.67;5.50;;;12.50;99.90;;;;;;5073428;28;20223;-68
2022/11/11 09:08:25;;;;;;;13.90;6.13;;;12.70;99.90;;;;;;5073187;28;20242;-68
2022/11/11 09:11:14;;;;;;;15.00;5.90;;;12.90;99.90;;;;;;5072927;28;20203;-67
2022/11/11 09:14:01;;;;;;;14.87;7.43;;;12.90;99.90;;;;;;5073228;28;20216;-71
2022/11/11 09:16:48;;;;;;;15.17;6.43;;;12.90;99.90;;;;;;5072936;28;20211;-68
2022/11/11 09:19:35;;;;;;;13.17;6.90;;;12.90;99.90;;;;;;5072838;28;20706;-67
2022/11/11 09:22:22;;;;;;;18.50;7.37;;;13.00;99.90;;;;;;5073108;28;20263;-71
2022/11/11 09:25:09;;;;;;;12.00;6.30;;;13.00;99.90;;;;;;5072998;28;20197;-71
2022/11/11 09:27:59;;;;;;;10.63;5.20;;;13.10;99.90;;;;;;5073008;28;20312;-68
2022/11/11 09:30:46;;;;;;;9.03;5.27;;;13.10;99.90;;;;;;5072935;28;20334;-67
2022/11/11 09:33:33;;;;;;;14.63;6.77;;;13.00;99.90;;;;;;5073264;28;20292;-69
2022/11/11 09:36:21;;;;;;;11.77;5.27;;;13.00;99.90;;;;;;5073043;28;20219;-68
2022/11/11 09:39:11;;;;;;;11.97;6.07;;;13.00;99.90;;;;;;5073158;28;20302;-68
2022/11/11 09:42:06;;;;;;;24.60;11.87;;;13.20;99.90;;;;;;5073163;28;20208;-66
2022/11/11 09:45:15;;;;;;;14.93;7.77;;;13.10;99.90;;;;;;5073172;28;20328;-68
2022/11/11 09:48:16;;;;;;;10.60;5.33;;;13.00;99.90;;;;;;5072576;28;20266;-68
2022/11/11 09:51:05;;;;;;;13.27;5.70;;;13.10;99.90;;;;;;5072587;28;20200;-67
2022/11/11 09:53:54;;;;;;;16.37;6.20;;;13.20;99.90;;;;;;5072572;28;20678;-68
2022/11/11 09:56:42;;;;;;;10.43;5.63;;;13.20;99.90;;;;;;5072927;28;20677;-72
2022/11/11 09:59:44;;;;;;;15.13;5.57;;;13.20;99.90;;;;;;5072871;28;20750;-67
2022/11/11 10:02:40;;;;;;;13.13;6.77;;;13.20;99.90;;;;;;5074410;28;20195;-66
2022/11/11 10:05:38;;;;;;;18.67;11.83;;;13.20;99.90;;;;;;5076338;28;20203;-67
2022/11/11 10:08:28;;;;;;;16.00;6.90;;;13.30;99.90;;;;;;5076369;28;20744;-68
2022/11/11 10:11:25;;;;;;;13.47;6.20;;;13.30;99.90;;;;;;5076612;28;20288;-68
2022/11/11 10:14:12;;;;;;;10.37;5.60;;;13.30;99.90;;;;;;5076513;28;20563;-68
2022/11/11 10:17:07;;;;;;;11.80;7.07;;;13.20;99.90;;;;;;5076178;28;20243;-67
2022/11/11 10:20:08;;;;;;;8.03;5.80;;;13.20;99.90;;;;;;5075921;28;20236;-71
2022/11/11 10:23:01;;;;;;;14.53;6.67;;;13.20;99.90;;;;;;5076264;28;20279;-67
2022/11/11 10:25:53;;;;;;;8.60;5.60;;;13.20;99.90;;;;;;5076095;28;20207;-69
2022/11/11 10:28:44;;;;;;;13.70;6.43;;;13.20;99.90;;;;;;5075978;28;20335;-69
2022/11/11 10:31:32;;;;;;;16.63;7.13;;;13.20;99.90;;;;;;5075801;28;20286;-66
2022/11/11 10:34:21;;;;;;;14.13;8.93;;;13.20;99.90;;;;;;5075804;28;20211;-71
2022/11/11 10:37:18;;;;;;;11.60;6.10;;;13.30;99.90;;;;;;5076104;28;20208;-70
2022/11/11 10:40:17;;;;;;;9.57;5.53;;;13.30;99.90;;;;;;5075762;28;20201;-66
2022/11/11 10:43:04;;;;;;;10.87;6.63;;;13.30;99.90;;;;;;5076005;28;20209;-68
2022/11/11 10:45:58;;;;;;;10.97;5.97;;;13.30;99.90;;;;;;5075772;28;20259;-68
2022/11/11 10:48:53;;;;;;;14.13;7.37;;;13.30;99.90;;;;;;5075657;28;20247;-68
2022/11/11 10:51:46;;;;;;;14.17;6.47;;;13.30;99.90;;;;;;5075512;28;20296;-67
2022/11/11 10:54:39;;;;;;;15.90;7.77;;;13.30;99.90;;;;;;5075661;28;20234;-67
2022/11/11 10:57:35;;;;;;;11.77;7.17;;;13.20;99.90;;;;;;5075427;28;20212;-67
2022/11/11 11:00:22;;;;;;;23.80;7.73;;;13.30;99.90;;;;;;5075868;28;20262;-67
2022/11/11 11:03:14;;;;;;;17.03;8.40;;;13.30;99.90;;;;;;5075236;28;20206;-67
2022/11/11 11:06:08;;;;;;;13.37;6.93;;;13.30;99.90;;;;;;5075247;28;20284;-69
2022/11/11 11:09:02;;;;;;;15.47;8.40;;;13.30;99.90;;;;;;5075185;28;20720;-67
2022/11/11 11:11:55;;;;;;;12.20;6.83;;;13.40;99.90;;;;;;5075377;28;20323;-68
2022/11/11 11:14:44;;;;;;;16.63;7.20;;;13.40;99.90;;;;;;5074905;28;20334;-67
2022/11/11 11:17:38;;;;;;;15.70;6.67;;;13.40;99.90;;;;;;5074949;28;20203;-68
2022/11/11 11:20:25;;;;;;;13.00;7.50;;;13.40;99.90;;;;;;5074705;28;20266;-70
2022/11/11 11:23:12;;;;;;;13.63;7.20;;;13.30;99.90;;;;;;5075092;28;20214;-68
2022/11/11 11:26:04;;;;;;;15.73;7.37;;;13.40;99.90;;;;;;5074771;28;20204;-68
2022/11/11 11:29:00;;;;;;;13.37;6.97;;;13.30;99.90;;;;;;5074780;28;20298;-70
2022/11/11 11:31:47;;;;;;;10.03;6.70;;;13.30;99.90;;;;;;5074754;28;20246;-66
2022/11/11 11:34:50;;;;;;;14.73;7.17;;;13.20;99.90;;;;;;5074672;28;20697;-72
2022/11/11 11:37:50;;;;;;;18.17;7.30;;;13.30;99.90;;;;;;5074776;28;20207;-69
2022/11/11 11:40:52;;;;;;;17.43;7.10;;;13.30;99.90;;;;;;5074559;28;20253;-70
2022/11/11 11:43:41;;;;;;;14.20;7.17;;;13.30;99.90;;;;;;5074643;28;20689;-68
2022/11/11 11:46:36;;;;;;;10.13;7.07;;;13.30;99.90;;;;;;5074633;28;20203;-72
2022/11/11 11:49:33;;;;;;;20.77;9.67;;;13.40;99.90;;;;;;5074903;28;20202;-72
2022/11/11 11:52:27;;;;;;;16.27;7.70;;;13.30;99.90;;;;;;5074436;28;20208;-71
2022/11/11 11:55:25;;;;;;;19.83;9.53;;;13.30;99.90;;;;;;5074425;28;20669;-72
2022/11/11 11:58:31;;;;;;;14.30;8.00;;;13.20;99.90;;;;;;5074747;28;20327;-69
2022/11/11 12:01:35;;;;;;;14.67;8.23;;;13.20;99.90;;;;;;5074159;28;20679;-69
2022/11/11 12:05:12;;;;;;;16.43;9.13;;;13.20;99.90;;;;;;5074277;28;20211;-72
2022/11/11 12:08:12;;;;;;;16.97;7.73;;;13.20;99.90;;;;;;4953857;28;20258;-67
2022/11/11 12:11:07;;;;;;;13.30;7.97;;;13.20;99.90;;;;;;4954107;29;20341;-68
2022/11/11 12:14:09;;;;;;;14.50;7.60;;;13.10;99.90;;;;;;4954085;29;20213;-72
2022/11/11 12:17:02;;;;;;;17.00;8.27;;;13.10;99.90;;;;;;4940516;29;20706;-70
2022/11/11 12:20:02;;;;;;;11.93;7.63;;;13.10;99.90;;;;;;4953586;29;20759;-70
2022/11/11 12:23:05;;;;;;;12.97;7.97;;;13.10;99.90;;;;;;4953992;29;20214;-70
2022/11/11 12:26:01;;;;;;;14.67;8.53;;;13.10;99.90;;;;;;4952838;28;20243;-69
2022/11/11 12:29:02;;;;;;;14.60;7.57;;;13.10;99.90;;;;;;4953605;29;20239;-69
2022/11/11 12:32:07;;;;;;;17.73;10.00;;;13.10;99.90;;;;;;4953847;28;20297;-72
2022/11/11 12:35:23;;;;;;;11.60;8.37;;;13.10;99.90;;;;;;4953478;29;20640;-73
2022/11/11 12:38:26;;;;;;;13.23;7.50;;;13.10;99.90;;;;;;4953464;28;20258;-73
2022/11/11 12:41:25;;;;;;;17.57;8.03;;;13.20;99.90;;;;;;4974867;28;20213;-73
2022/11/11 12:44:14;;;;;;;14.63;8.40;;;13.20;99.90;;;;;;5028723;28;20220;-72
2022/11/11 12:47:21;;;;;;;11.80;7.30;;;13.20;99.90;;;;;;5073251;28;20285;-71
2022/11/11 12:50:19;;;;;;;16.30;8.13;;;13.10;99.90;;;;;;5073393;28;20223;-69
2022/11/11 12:53:19;;;;;;;14.37;10.00;;;13.20;99.90;;;;;;5073427;28;20568;-67
2022/11/11 12:56:15;;;;;;;11.77;7.70;;;13.10;99.90;;;;;;5073123;28;20215;-71
2022/11/11 12:59:12;;;;;;;13.87;7.43;;;13.20;99.90;;;;;;5073117;28;20197;-71
2022/11/11 13:02:17;;;;;;;13.93;8.47;;;13.10;99.90;;;;;;5073195;28;20201;-69
2022/11/11 13:05:11;;;;;;;13.47;8.57;;;13.20;99.90;;;;;;5073304;28;20208;-66
2022/11/11 13:08:21;;;;;;;40.50;21.27;;;13.30;99.90;;;;;;5072957;28;20274;-70
2022/11/11 13:11:14;;;;;;;16.07;8.03;;;13.20;99.90;;;;;;5073246;28;20758;-66
2022/11/11 13:14:26;;;;;;;20.63;8.53;;;13.20;99.90;;;;;;5073267;28;20274;-72
2022/11/11 13:17:15;;;;;;;14.73;8.83;;;13.30;99.90;;;;;;5073031;28;20287;-71
2022/11/11 13:20:07;;;;;;;18.40;8.33;;;13.20;99.90;;;;;;5072780;28;20331;-72
2022/11/11 13:22:54;;;;;;;17.10;8.77;;;13.10;99.90;;;;;;5073190;28;20304;-71
2022/11/11 13:25:47;;;;;;;13.20;7.53;;;13.20;99.90;;;;;;5073095;28;20557;-70
2022/11/11 13:28:42;;;;;;;14.93;7.90;;;13.20;99.90;;;;;;5072955;28;20594;-69
2022/11/11 13:31:34;;;;;;;15.87;7.27;;;13.20;99.90;;;;;;5073244;28;20606;-69
2022/11/11 13:34:24;;;;;;;14.37;7.67;;;13.20;99.90;;;;;;5073172;28;20289;-69
2022/11/11 13:37:22;;;;;;;15.63;8.10;;;13.30;99.90;;;;;;5076115;28;20564;-69
2022/11/11 13:40:32;;;;;;;16.90;7.97;;;13.30;99.90;;;;;;5076776;28;20278;-70
2022/11/11 13:43:24;;;;;;;15.90;8.50;;;13.20;99.90;;;;;;5077116;28;20207;-71
2022/11/11 13:46:32;;;;;;;15.27;8.00;;;13.30;99.90;;;;;;5076827;28;20289;-68
2022/11/11 13:49:26;;;;;;;13.33;8.73;;;13.30;99.90;;;;;;5076761;28;20230;-71
2022/11/11 13:52:22;;;;;;;12.77;7.53;;;13.30;99.90;;;;;;5076662;28;20216;-66
2022/11/11 13:55:28;;;;;;;20.13;7.70;;;13.40;99.90;;;;;;5076792;28;20295;-71
2022/11/11 13:58:25;;;;;;;15.00;7.73;;;13.30;99.90;;;;;;5076800;28;20293;-72
2022/11/11 14:01:12;;;;;;;19.97;9.47;;;13.30;99.90;;;;;;5076645;28;20571;-73
2022/11/11 14:04:03;;;;;;;14.70;7.70;;;13.40;99.90;;;;;;5076708;28;20728;-72
2022/11/11 14:06:53;;;;;;;21.27;8.03;;;13.20;99.90;;;;;;5076274;28;20289;-70
2022/11/11 14:09:59;;;;;;;16.57;8.37;;;13.20;99.90;;;;;;5076385;28;20240;-66
2022/11/11 14:12:48;;;;;;;16.90;7.87;;;13.30;99.90;;;;;;5076339;28;20195;-71
2022/11/11 14:15:43;;;;;;;15.87;9.17;;;13.20;99.90;;;;;;5076332;28;20211;-72
2022/11/11 14:18:48;;;;;;;19.03;7.77;;;13.20;99.90;;;;;;5075859;28;20560;-68
2022/11/11 14:22:01;;;;;;;13.67;7.57;;;13.30;99.90;;;;;;5076382;28;20215;-73
2022/11/11 14:24:49;;;;;;;15.70;8.57;;;13.30;99.90;;;;;;5014039;28;20210;-72
2022/11/11 14:27:36;;;;;;;20.23;8.67;;;13.20;99.90;;;;;;5013989;28;20212;-72
2022/11/11 14:30:36;;;;;;;19.30;8.37;;;13.20;99.90;;;;;;5014074;28;20244;-71
2022/11/11 14:33:45;;;;;;;14.73;7.93;;;13.20;99.90;;;;;;5014341;28;20206;-72
2022/11/11 14:36:41;;;;;;;17.63;8.73;;;13.30;99.90;;;;;;5013936;28;20249;-72
2022/11/11 14:39:42;;;;;;;15.07;8.37;;;13.40;99.90;;;;;;5013904;28;20740;-68
2022/11/11 14:42:48;;;;;;;17.83;8.23;;;13.20;99.90;;;;;;5013859;28;20218;-67
2022/11/11 14:46:02;;;;;;;16.27;8.60;;;13.20;99.90;;;;;;5013914;28;20293;-69
2022/11/11 14:49:02;;;;;;;18.33;8.60;;;13.20;99.90;;;;;;5013089;28;20317;-68
2022/11/11 14:51:56;;;;;;;16.43;9.00;;;13.20;99.90;;;;;;5013984;28;20214;-71
2022/11/11 14:54:54;;;;;;;23.53;9.17;;;13.20;99.90;;;;;;5013559;28;20216;-68
2022/11/11 14:57:46;;;;;;;13.57;8.83;;;13.20;99.90;;;;;;5014025;28;20222;-72
2022/11/11 15:00:43;;;;;;;15.63;8.53;;;13.30;99.90;;;;;;5029386;28;20570;-72
2022/11/11 15:03:35;;;;;;;24.70;12.17;;;13.30;99.90;;;;;;5075580;28;20607;-71
2022/11/11 15:06:26;;;;;;;17.97;9.27;;;13.30;99.90;;;;;;5075284;28;20212;-73
2022/11/11 15:09:30;;;;;;;20.73;9.10;;;13.30;99.90;;;;;;5075303;28;20233;-73
2022/11/11 15:12:31;;;;;;;17.57;8.70;;;13.20;99.90;;;;;;5075200;28;20219;-73
2022/11/11 15:15:24;;;;;;;18.67;8.73;;;13.20;99.90;;;;;;5075277;28;20211;-72
2022/11/11 15:18:30;;;;;;;13.47;8.37;;;13.20;99.90;;;;;;5075027;28;20315;-72
2022/11/11 15:21:26;;;;;;;16.73;10.20;;;13.30;99.90;;;;;;5075223;28;20194;-72
2022/11/11 15:24:24;;;;;;;14.83;8.63;;;13.20;99.90;;;;;;5074875;28;20577;-72
2022/11/11 15:27:26;;;;;;;17.53;8.20;;;13.30;99.90;;;;;;5074832;28;20248;-72
2022/11/11 15:30:16;;;;;;;19.57;8.17;;;13.20;99.90;;;;;;5074779;28;20290;-72
2022/11/11 15:33:14;;;;;;;15.87;8.30;;;13.20;99.90;;;;;;5075285;28;20248;-72
2022/11/11 15:36:10;;;;;;;14.03;7.90;;;13.20;99.90;;;;;;5074976;28;20213;-72
2022/11/11 15:39:05;;;;;;;17.73;8.43;;;13.20;99.90;;;;;;5074722;28;20248;-70
2022/11/11 15:41:52;;;;;;;11.60;8.27;;;13.20;99.90;;;;;;5074564;28;20292;-71
2022/11/11 15:44:41;;;;;;;18.50;8.83;;;13.20;99.90;;;;;;5074700;28;20690;-72
2022/11/11 15:47:30;;;;;;;19.63;9.47;;;13.30;99.90;;;;;;5074655;28;20200;-68
2022/11/11 15:50:36;;;;;;;15.63;9.20;;;13.30;99.90;;;;;;5074427;28;20599;-73
2022/11/11 15:53:25;;;;;;;19.67;9.80;;;13.30;99.90;;;;;;5074555;28;20203;-70
2022/11/11 15:56:26;;;;;;;14.73;8.67;;;13.40;99.90;;;;;;5074469;28;20242;-66
2022/11/11 15:59:18;;;;;;;17.73;9.37;;;13.40;99.90;;;;;;5073736;28;20211;-69
2022/11/11 16:02:18;;;;;;;29.20;19.37;;;13.30;99.90;;;;;;5073982;28;20199;-65